sensor_id;sensor_type;location;lat;lon;timestamp;temperature;humidity
3504;DHT22;1766;53.490;10.174;2023-03-03T00:01:54;7.20;43.40
3504;DHT22;1766;53.490;10.174;2023-03-03T00:03:55;7.20;43.40
3504;DHT22;1766;53.490;10.174;2023-03-03T00:05:58;7.40;43.60
3504;DHT22;1766;53.490;10.174;2023-03-03T00:08:02;7.40;43.70
3504;DHT22;1766;53.490;10.174;2023-03-03T00:10:05;7.40;43.80
3504;DHT22;1766;53.490;10.174;2023-03-03T00:12:23;7.40;43.80
3504;DHT22;1766;53.490;10.174;2023-03-03T00:14:28;7.50;43.90
3504;DHT22;1766;53.490;10.174;2023-03-03T00:16:34;7.50;44.00
3504;DHT22;1766;53.490;10.174;2023-03-03T00:18:41;7.60;44.10
3504;DHT22;1766;53.490;10.174;2023-03-03T00:20:47;7.60;44.00
3504;DHT22;1766;53.490;10.174;2023-03-03T00:22:50;7.70;44.20
3504;DHT22;1766;53.490;10.174;2023-03-03T00:24:53;7.70;44.10
3504;DHT22;1766;53.490;10.174;2023-03-03T00:26:59;7.70;44.10
3504;DHT22;1766;53.490;10.174;2023-03-03T00:29:23;7.90;44.40
3504;DHT22;1766;53.490;10.174;2023-03-03T00:31:31;7.80;44.40
3504;DHT22;1766;53.490;10.174;2023-03-03T00:33:40;7.90;44.40
3504;DHT22;1766;53.490;10.174;2023-03-03T00:35:44;7.90;44.40
3504;DHT22;1766;53.490;10.174;2023-03-03T00:37:46;8.00;44.40
3504;DHT22;1766;53.490;10.174;2023-03-03T00:39:48;8.00;44.50
3504;DHT22;1766;53.490;10.174;2023-03-03T00:41:51;8.00;44.50
3504;DHT22;1766;53.490;10.174;2023-03-03T00:43:53;8.00;44.70
3504;DHT22;1766;53.490;10.174;2023-03-03T00:45:56;8.10;44.60
3504;DHT22;1766;53.490;10.174;2023-03-03T00:48:06;8.20;44.80
3504;DHT22;1766;53.490;10.174;2023-03-03T00:50:28;8.20;44.80
3504;DHT22;1766;53.490;10.174;2023-03-03T00:52:35;8.20;44.90
3504;DHT22;1766;53.490;10.174;2023-03-03T00:54:39;8.40;45.00
3504;DHT22;1766;53.490;10.174;2023-03-03T00:56:40;8.30;44.90
3504;DHT22;1766;53.490;10.174;2023-03-03T00:58:44;8.20;44.80
3504;DHT22;1766;53.490;10.174;2023-03-03T01:00:48;8.30;45.00
3504;DHT22;1766;53.490;10.174;2023-03-03T01:02:50;8.40;45.10
3504;DHT22;1766;53.490;10.174;2023-03-03T01:04:53;8.40;44.90
3504;DHT22;1766;53.490;10.174;2023-03-03T01:06:56;8.40;45.00
3504;DHT22;1766;53.490;10.174;2023-03-03T01:08:57;8.40;45.00
3504;DHT22;1766;53.490;10.174;2023-03-03T01:11:03;8.50;45.10
3504;DHT22;1766;53.490;10.174;2023-03-03T01:13:07;8.40;45.10
3504;DHT22;1766;53.490;10.174;2023-03-03T01:15:11;8.50;45.10
3504;DHT22;1766;53.490;10.174;2023-03-03T01:17:14;8.50;45.30
3504;DHT22;1766;53.490;10.174;2023-03-03T01:19:16;8.50;45.70
3504;DHT22;1766;53.490;10.174;2023-03-03T01:21:18;8.50;45.20
3504;DHT22;1766;53.490;10.174;2023-03-03T01:23:20;8.50;45.20
3504;DHT22;1766;53.490;10.174;2023-03-03T01:25:22;8.50;45.30
3504;DHT22;1766;53.490;10.174;2023-03-03T01:27:34;8.60;45.90
3504;DHT22;1766;53.490;10.174;2023-03-03T01:29:36;8.60;45.40
3504;DHT22;1766;53.490;10.174;2023-03-03T01:31:39;8.60;45.30
3504;DHT22;1766;53.490;10.174;2023-03-03T01:33:41;8.60;45.30
3504;DHT22;1766;53.490;10.174;2023-03-03T01:35:43;8.60;45.30
3504;DHT22;1766;53.490;10.174;2023-03-03T01:37:45;8.50;45.40
3504;DHT22;1766;53.490;10.174;2023-03-03T01:39:48;8.60;45.50
3504;DHT22;1766;53.490;10.174;2023-03-03T01:41:50;8.60;45.70
3504;DHT22;1766;53.490;10.174;2023-03-03T01:43:52;8.60;45.60
3504;DHT22;1766;53.490;10.174;2023-03-03T01:48:41;8.70;46.40
3504;DHT22;1766;53.490;10.174;2023-03-03T01:50:47;8.80;45.90
3504;DHT22;1766;53.490;10.174;2023-03-03T01:52:51;8.80;45.90
3504;DHT22;1766;53.490;10.174;2023-03-03T01:54:56;8.80;45.80
3504;DHT22;1766;53.490;10.174;2023-03-03T01:57:03;8.80;45.90
3504;DHT22;1766;53.490;10.174;2023-03-03T01:59:10;8.90;46.00
3504;DHT22;1766;53.490;10.174;2023-03-03T02:01:18;9.00;46.00
3504;DHT22;1766;53.490;10.174;2023-03-03T02:03:22;9.00;46.10
3504;DHT22;1766;53.490;10.174;2023-03-03T02:05:26;9.00;46.10
3504;DHT22;1766;53.490;10.174;2023-03-03T02:07:30;9.00;46.10
3504;DHT22;1766;53.490;10.174;2023-03-03T02:09:41;9.00;46.10
3504;DHT22;1766;53.490;10.174;2023-03-03T02:11:50;9.00;46.20
3504;DHT22;1766;53.490;10.174;2023-03-03T02:13:53;9.10;46.30
3504;DHT22;1766;53.490;10.174;2023-03-03T02:15:55;9.10;46.20
3504;DHT22;1766;53.490;10.174;2023-03-03T02:18:01;9.10;46.20
3504;DHT22;1766;53.490;10.174;2023-03-03T02:20:08;9.10;46.40
3504;DHT22;1766;53.490;10.174;2023-03-03T02:22:16;9.10;46.40
3504;DHT22;1766;53.490;10.174;2023-03-03T02:24:24;9.10;46.40
3504;DHT22;1766;53.490;10.174;2023-03-03T02:26:31;9.20;46.50
3504;DHT22;1766;53.490;10.174;2023-03-03T02:28:36;9.10;46.50
3504;DHT22;1766;53.490;10.174;2023-03-03T02:30:39;9.10;46.40
3504;DHT22;1766;53.490;10.174;2023-03-03T02:32:41;9.10;46.40
3504;DHT22;1766;53.490;10.174;2023-03-03T02:34:45;9.00;46.40
3504;DHT22;1766;53.490;10.174;2023-03-03T02:36:48;9.00;46.50
3504;DHT22;1766;53.490;10.174;2023-03-03T02:38:55;9.10;46.50
3504;DHT22;1766;53.490;10.174;2023-03-03T02:41:06;9.10;46.60
3504;DHT22;1766;53.490;10.174;2023-03-03T02:43:14;9.10;46.50
3504;DHT22;1766;53.490;10.174;2023-03-03T02:45:18;9.10;46.50
3504;DHT22;1766;53.490;10.174;2023-03-03T02:47:20;9.10;46.40
3504;DHT22;1766;53.490;10.174;2023-03-03T02:49:24;9.10;46.40
3504;DHT22;1766;53.490;10.174;2023-03-03T02:51:27;9.10;46.60
3504;DHT22;1766;53.490;10.174;2023-03-03T02:53:28;9.00;46.40
3504;DHT22;1766;53.490;10.174;2023-03-03T02:55:30;9.10;46.50
3504;DHT22;1766;53.490;10.174;2023-03-03T02:57:36;9.10;46.50
3504;DHT22;1766;53.490;10.174;2023-03-03T02:59:39;9.10;46.50
3504;DHT22;1766;53.490;10.174;2023-03-03T03:01:41;9.10;46.30
3504;DHT22;1766;53.490;10.174;2023-03-03T03:03:44;9.10;46.50
3504;DHT22;1766;53.490;10.174;2023-03-03T03:05:46;9.00;45.80
3504;DHT22;1766;53.490;10.174;2023-03-03T03:07:48;8.70;45.80
3504;DHT22;1766;53.490;10.174;2023-03-03T03:09:50;9.00;46.20
3504;DHT22;1766;53.490;10.174;2023-03-03T03:11:52;9.00;46.20
3504;DHT22;1766;53.490;10.174;2023-03-03T03:13:54;9.00;46.40
3504;DHT22;1766;53.490;10.174;2023-03-03T03:15:57;9.00;46.40
3504;DHT22;1766;53.490;10.174;2023-03-03T03:18:00;9.00;46.50
3504;DHT22;1766;53.490;10.174;2023-03-03T03:20:01;9.00;46.30
3504;DHT22;1766;53.490;10.174;2023-03-03T03:22:03;9.00;46.50
3504;DHT22;1766;53.490;10.174;2023-03-03T03:24:05;9.00;46.50
3504;DHT22;1766;53.490;10.174;2023-03-03T03:26:08;9.00;46.60
3504;DHT22;1766;53.490;10.174;2023-03-03T03:28:10;9.00;46.50
3504;DHT22;1766;53.490;10.174;2023-03-03T03:30:12;8.90;46.40
3504;DHT22;1766;53.490;10.174;2023-03-03T03:32:16;8.90;46.50
3504;DHT22;1766;53.490;10.174;2023-03-03T03:34:18;8.90;46.40
3504;DHT22;1766;53.490;10.174;2023-03-03T03:36:20;8.90;46.30
3504;DHT22;1766;53.490;10.174;2023-03-03T03:38:23;8.90;46.50
3504;DHT22;1766;53.490;10.174;2023-03-03T03:40:26;8.90;46.60
3504;DHT22;1766;53.490;10.174;2023-03-03T03:42:35;8.90;46.50
3504;DHT22;1766;53.490;10.174;2023-03-03T03:44:38;8.90;46.50
3504;DHT22;1766;53.490;10.174;2023-03-03T03:46:40;8.80;46.30
3504;DHT22;1766;53.490;10.174;2023-03-03T03:48:43;8.90;46.40
3504;DHT22;1766;53.490;10.174;2023-03-03T03:50:46;8.90;46.20
3504;DHT22;1766;53.490;10.174;2023-03-03T03:52:48;8.90;46.20
3504;DHT22;1766;53.490;10.174;2023-03-03T03:54:50;8.90;46.40
3504;DHT22;1766;53.490;10.174;2023-03-03T03:56:52;8.90;46.40
3504;DHT22;1766;53.490;10.174;2023-03-03T03:58:54;8.90;46.50
3504;DHT22;1766;53.490;10.174;2023-03-03T04:01:01;8.30;45.40
3504;DHT22;1766;53.490;10.174;2023-03-03T04:03:04;8.80;46.60
3504;DHT22;1766;53.490;10.174;2023-03-03T04:05:08;8.80;46.00
3504;DHT22;1766;53.490;10.174;2023-03-03T04:07:10;8.70;46.70
3504;DHT22;1766;53.490;10.174;2023-03-03T04:09:12;8.70;47.20
3504;DHT22;1766;53.490;10.174;2023-03-03T04:11:14;8.80;46.70
3504;DHT22;1766;53.490;10.174;2023-03-03T04:13:16;8.70;46.50
3504;DHT22;1766;53.490;10.174;2023-03-03T04:15:18;8.70;46.50
3504;DHT22;1766;53.490;10.174;2023-03-03T04:17:21;8.70;46.30
3504;DHT22;1766;53.490;10.174;2023-03-03T04:19:24;8.70;46.60
3504;DHT22;1766;53.490;10.174;2023-03-03T04:21:27;8.50;46.30
3504;DHT22;1766;53.490;10.174;2023-03-03T04:23:29;8.70;46.70
3504;DHT22;1766;53.490;10.174;2023-03-03T04:25:31;8.60;46.60
3504;DHT22;1766;53.490;10.174;2023-03-03T04:27:34;8.70;46.70
3504;DHT22;1766;53.490;10.174;2023-03-03T04:29:37;8.60;46.80
3504;DHT22;1766;53.490;10.174;2023-03-03T04:31:39;8.60;46.70
3504;DHT22;1766;53.490;10.174;2023-03-03T04:33:41;8.60;46.60
3504;DHT22;1766;53.490;10.174;2023-03-03T04:35:44;8.60;46.60
3504;DHT22;1766;53.490;10.174;2023-03-03T04:37:47;8.60;46.60
3504;DHT22;1766;53.490;10.174;2023-03-03T04:39:49;8.60;46.60
3504;DHT22;1766;53.490;10.174;2023-03-03T04:41:51;8.60;46.60
3504;DHT22;1766;53.490;10.174;2023-03-03T04:43:53;8.50;46.60
3504;DHT22;1766;53.490;10.174;2023-03-03T04:45:55;8.50;46.80
3504;DHT22;1766;53.490;10.174;2023-03-03T04:47:57;8.50;46.70
3504;DHT22;1766;53.490;10.174;2023-03-03T04:49:59;8.50;46.60
3504;DHT22;1766;53.490;10.174;2023-03-03T04:52:01;8.50;46.70
3504;DHT22;1766;53.490;10.174;2023-03-03T04:54:04;8.50;46.80
3504;DHT22;1766;53.490;10.174;2023-03-03T04:56:06;8.50;46.70
3504;DHT22;1766;53.490;10.174;2023-03-03T04:58:08;8.50;46.70
3504;DHT22;1766;53.490;10.174;2023-03-03T05:00:14;8.50;46.70
3504;DHT22;1766;53.490;10.174;2023-03-03T05:02:16;8.50;47.00
3504;DHT22;1766;53.490;10.174;2023-03-03T05:04:18;8.60;47.30
3504;DHT22;1766;53.490;10.174;2023-03-03T05:06:20;8.60;46.60
3504;DHT22;1766;53.490;10.174;2023-03-03T05:08:23;8.50;46.50
3504;DHT22;1766;53.490;10.174;2023-03-03T05:10:26;8.50;46.70
3504;DHT22;1766;53.490;10.174;2023-03-03T05:12:28;8.50;46.60
3504;DHT22;1766;53.490;10.174;2023-03-03T05:14:30;8.50;46.50
3504;DHT22;1766;53.490;10.174;2023-03-03T05:16:32;8.50;46.50
3504;DHT22;1766;53.490;10.174;2023-03-03T05:18:34;8.50;46.70
3504;DHT22;1766;53.490;10.174;2023-03-03T05:20:39;8.50;46.80
3504;DHT22;1766;53.490;10.174;2023-03-03T05:22:41;8.60;46.70
3504;DHT22;1766;53.490;10.174;2023-03-03T05:24:43;7.70;45.80
3504;DHT22;1766;53.490;10.174;2023-03-03T05:26:49;8.60;46.80
3504;DHT22;1766;53.490;10.174;2023-03-03T05:28:51;8.60;46.80
3504;DHT22;1766;53.490;10.174;2023-03-03T05:30:53;8.60;46.80
3504;DHT22;1766;53.490;10.174;2023-03-03T05:32:55;8.60;46.80
3504;DHT22;1766;53.490;10.174;2023-03-03T05:34:58;8.50;46.50
3504;DHT22;1766;53.490;10.174;2023-03-03T05:37:00;8.50;46.50
3504;DHT22;1766;53.490;10.174;2023-03-03T05:39:03;8.40;46.60
3504;DHT22;1766;53.490;10.174;2023-03-03T05:41:05;8.40;46.60
3504;DHT22;1766;53.490;10.174;2023-03-03T05:43:08;8.40;46.70
3504;DHT22;1766;53.490;10.174;2023-03-03T05:45:10;8.40;46.80
3504;DHT22;1766;53.490;10.174;2023-03-03T05:47:12;8.40;46.90
3504;DHT22;1766;53.490;10.174;2023-03-03T05:49:14;8.30;46.80
3504;DHT22;1766;53.490;10.174;2023-03-03T05:51:16;8.40;46.80
3504;DHT22;1766;53.490;10.174;2023-03-03T05:53:18;8.30;46.70
3504;DHT22;1766;53.490;10.174;2023-03-03T05:55:20;8.40;46.90
3504;DHT22;1766;53.490;10.174;2023-03-03T05:57:22;8.30;46.80
3504;DHT22;1766;53.490;10.174;2023-03-03T05:59:25;8.40;46.80
3504;DHT22;1766;53.490;10.174;2023-03-03T06:01:27;8.40;46.80
3504;DHT22;1766;53.490;10.174;2023-03-03T06:03:30;8.50;46.90
3504;DHT22;1766;53.490;10.174;2023-03-03T06:05:32;8.50;46.90
3504;DHT22;1766;53.490;10.174;2023-03-03T06:07:34;8.40;46.60
3504;DHT22;1766;53.490;10.174;2023-03-03T06:09:36;8.40;46.80
3504;DHT22;1766;53.490;10.174;2023-03-03T06:11:46;8.40;46.80
3504;DHT22;1766;53.490;10.174;2023-03-03T06:13:48;8.40;46.80
3504;DHT22;1766;53.490;10.174;2023-03-03T06:15:51;8.30;46.70
3504;DHT22;1766;53.490;10.174;2023-03-03T06:17:52;8.40;46.80
3504;DHT22;1766;53.490;10.174;2023-03-03T06:19:54;8.40;46.80
3504;DHT22;1766;53.490;10.174;2023-03-03T06:21:56;8.40;46.60
3504;DHT22;1766;53.490;10.174;2023-03-03T06:23:58;8.40;46.70
3504;DHT22;1766;53.490;10.174;2023-03-03T06:26:00;8.40;46.70
3504;DHT22;1766;53.490;10.174;2023-03-03T06:28:02;8.40;46.60
3504;DHT22;1766;53.490;10.174;2023-03-03T06:30:05;8.40;46.70
3504;DHT22;1766;53.490;10.174;2023-03-03T06:32:09;8.40;47.00
3504;DHT22;1766;53.490;10.174;2023-03-03T06:34:11;8.40;46.80
3504;DHT22;1766;53.490;10.174;2023-03-03T06:36:13;8.40;46.90
3504;DHT22;1766;53.490;10.174;2023-03-03T06:38:15;8.40;46.80
3504;DHT22;1766;53.490;10.174;2023-03-03T06:40:16;8.50;46.90
3504;DHT22;1766;53.490;10.174;2023-03-03T06:42:18;8.40;46.80
3504;DHT22;1766;53.490;10.174;2023-03-03T06:44:20;8.40;46.80
3504;DHT22;1766;53.490;10.174;2023-03-03T06:46:22;8.40;46.90
3504;DHT22;1766;53.490;10.174;2023-03-03T06:48:25;8.50;47.10
3504;DHT22;1766;53.490;10.174;2023-03-03T06:50:27;8.50;47.10
3504;DHT22;1766;53.490;10.174;2023-03-03T06:52:29;8.40;46.80
3504;DHT22;1766;53.490;10.174;2023-03-03T06:54:31;8.50;46.90
3504;DHT22;1766;53.490;10.174;2023-03-03T06:56:36;8.50;46.90
3504;DHT22;1766;53.490;10.174;2023-03-03T06:58:38;8.40;46.90
3504;DHT22;1766;53.490;10.174;2023-03-03T07:00:41;8.40;46.90
3504;DHT22;1766;53.490;10.174;2023-03-03T07:02:44;8.40;47.10
3504;DHT22;1766;53.490;10.174;2023-03-03T07:04:48;8.40;47.10
3504;DHT22;1766;53.490;10.174;2023-03-03T07:06:50;8.40;46.90
3504;DHT22;1766;53.490;10.174;2023-03-03T07:08:53;8.50;47.20
3504;DHT22;1766;53.490;10.174;2023-03-03T07:11:01;8.50;47.20
3504;DHT22;1766;53.490;10.174;2023-03-03T07:13:17;8.50;47.20
3504;DHT22;1766;53.490;10.174;2023-03-03T07:15:22;8.60;47.30
3504;DHT22;1766;53.490;10.174;2023-03-03T07:17:25;8.60;47.20
3504;DHT22;1766;53.490;10.174;2023-03-03T07:19:32;8.60;47.20
3504;DHT22;1766;53.490;10.174;2023-03-03T07:21:36;8.50;47.20
3504;DHT22;1766;53.490;10.174;2023-03-03T07:23:39;8.60;47.10
3504;DHT22;1766;53.490;10.174;2023-03-03T07:25:42;8.60;47.20
3504;DHT22;1766;53.490;10.174;2023-03-03T07:27:46;8.50;47.00
3504;DHT22;1766;53.490;10.174;2023-03-03T07:29:49;8.60;47.20
3504;DHT22;1766;53.490;10.174;2023-03-03T07:31:52;8.60;47.50
3504;DHT22;1766;53.490;10.174;2023-03-03T07:33:57;8.60;47.50
3504;DHT22;1766;53.490;10.174;2023-03-03T07:36:01;8.70;47.50
3504;DHT22;1766;53.490;10.174;2023-03-03T07:38:16;8.70;47.60
3504;DHT22;1766;53.490;10.174;2023-03-03T07:40:30;8.70;47.60
3504;DHT22;1766;53.490;10.174;2023-03-03T07:42:38;8.80;47.50
3504;DHT22;1766;53.490;10.174;2023-03-03T07:44:41;8.70;47.50
3504;DHT22;1766;53.490;10.174;2023-03-03T07:46:46;8.90;47.60
3504;DHT22;1766;53.490;10.174;2023-03-03T07:48:50;8.90;47.70
3504;DHT22;1766;53.490;10.174;2023-03-03T07:50:53;9.00;47.80
3504;DHT22;1766;53.490;10.174;2023-03-03T07:52:58;9.00;47.60
3504;DHT22;1766;53.490;10.174;2023-03-03T07:55:22;9.00;47.70
3504;DHT22;1766;53.490;10.174;2023-03-03T07:57:39;9.00;47.60
3504;DHT22;1766;53.490;10.174;2023-03-03T07:59:45;9.10;47.60
3504;DHT22;1766;53.490;10.174;2023-03-03T08:01:51;9.50;48.10
3504;DHT22;1766;53.490;10.174;2023-03-03T08:03:55;9.10;47.60
3504;DHT22;1766;53.490;10.174;2023-03-03T08:05:57;9.30;47.70
3504;DHT22;1766;53.490;10.174;2023-03-03T08:08:14;9.20;48.10
3504;DHT22;1766;53.490;10.174;2023-03-03T08:10:34;9.10;47.90
3504;DHT22;1766;53.490;10.174;2023-03-03T08:12:38;9.20;48.00
3504;DHT22;1766;53.490;10.174;2023-03-03T08:14:41;9.40;48.10
3504;DHT22;1766;53.490;10.174;2023-03-03T08:16:43;9.40;48.00
3504;DHT22;1766;53.490;10.174;2023-03-03T08:18:47;9.50;48.00
3504;DHT22;1766;53.490;10.174;2023-03-03T08:20:52;9.50;48.00
3504;DHT22;1766;53.490;10.174;2023-03-03T08:22:55;9.50;47.90
3504;DHT22;1766;53.490;10.174;2023-03-03T08:24:57;9.40;47.50
3504;DHT22;1766;53.490;10.174;2023-03-03T08:27:00;9.60;47.80
3504;DHT22;1766;53.490;10.174;2023-03-03T08:29:02;9.50;47.80
3504;DHT22;1766;53.490;10.174;2023-03-03T08:31:04;9.50;47.80
3504;DHT22;1766;53.490;10.174;2023-03-03T08:33:06;9.50;47.70
3504;DHT22;1766;53.490;10.174;2023-03-03T08:35:08;9.60;47.90
3504;DHT22;1766;53.490;10.174;2023-03-03T08:37:10;9.50;47.70
3504;DHT22;1766;53.490;10.174;2023-03-03T08:39:12;9.50;47.50
3504;DHT22;1766;53.490;10.174;2023-03-03T08:41:14;9.50;47.50
3504;DHT22;1766;53.490;10.174;2023-03-03T08:43:17;9.50;47.80
3504;DHT22;1766;53.490;10.174;2023-03-03T08:45:21;9.50;47.80
3504;DHT22;1766;53.490;10.174;2023-03-03T08:47:22;9.50;47.70
3504;DHT22;1766;53.490;10.174;2023-03-03T08:49:24;9.50;47.80
3504;DHT22;1766;53.490;10.174;2023-03-03T08:51:26;9.60;47.90
3504;DHT22;1766;53.490;10.174;2023-03-03T08:53:29;9.60;47.90
3504;DHT22;1766;53.490;10.174;2023-03-03T08:55:33;9.60;47.90
3504;DHT22;1766;53.490;10.174;2023-03-03T08:57:35;9.60;47.90
3504;DHT22;1766;53.490;10.174;2023-03-03T08:59:39;9.70;48.00
3504;DHT22;1766;53.490;10.174;2023-03-03T09:01:44;9.70;47.80
3504;DHT22;1766;53.490;10.174;2023-03-03T09:03:45;9.70;47.70
3504;DHT22;1766;53.490;10.174;2023-03-03T09:05:47;9.70;47.70
3504;DHT22;1766;53.490;10.174;2023-03-03T09:07:50;9.60;47.60
3504;DHT22;1766;53.490;10.174;2023-03-03T09:09:53;9.60;47.70
3504;DHT22;1766;53.490;10.174;2023-03-03T09:11:58;9.60;48.10
3504;DHT22;1766;53.490;10.174;2023-03-03T09:14:08;9.70;47.90
3504;DHT22;1766;53.490;10.174;2023-03-03T09:16:16;9.60;47.80
3504;DHT22;1766;53.490;10.174;2023-03-03T09:18:21;9.60;47.70
3504;DHT22;1766;53.490;10.174;2023-03-03T09:20:33;9.60;47.70
3504;DHT22;1766;53.490;10.174;2023-03-03T09:22:37;9.50;47.50
3504;DHT22;1766;53.490;10.174;2023-03-03T09:24:41;9.50;47.60
3504;DHT22;1766;53.490;10.174;2023-03-03T09:26:45;9.50;47.70
3504;DHT22;1766;53.490;10.174;2023-03-03T09:28:49;9.60;47.90
3504;DHT22;1766;53.490;10.174;2023-03-03T09:30:51;9.60;47.70
3504;DHT22;1766;53.490;10.174;2023-03-03T09:32:56;9.60;47.90
3504;DHT22;1766;53.490;10.174;2023-03-03T09:34:59;9.70;48.10
3504;DHT22;1766;53.490;10.174;2023-03-03T09:37:17;9.80;48.10
3504;DHT22;1766;53.490;10.174;2023-03-03T09:39:25;9.80;48.00
3504;DHT22;1766;53.490;10.174;2023-03-03T09:41:45;9.00;47.10
3504;DHT22;1766;53.490;10.174;2023-03-03T09:44:12;9.90;48.00
3504;DHT22;1766;53.490;10.174;2023-03-03T09:46:31;10.10;47.30
3504;DHT22;1766;53.490;10.174;2023-03-03T09:48:51;10.10;47.30
3504;DHT22;1766;53.490;10.174;2023-03-03T09:51:12;10.20;47.20
3504;DHT22;1766;53.490;10.174;2023-03-03T09:53:43;10.20;47.20
3504;DHT22;1766;53.490;10.174;2023-03-03T09:55:57;10.40;47.20
3504;DHT22;1766;53.490;10.174;2023-03-03T09:58:18;10.40;47.20
3504;DHT22;1766;53.490;10.174;2023-03-03T10:00:38;10.50;47.20
3504;DHT22;1766;53.490;10.174;2023-03-03T10:02:51;10.60;47.20
3504;DHT22;1766;53.490;10.174;2023-03-03T10:05:12;10.60;47.10
3504;DHT22;1766;53.490;10.174;2023-03-03T10:07:26;10.50;46.80
3504;DHT22;1766;53.490;10.174;2023-03-03T10:09:51;10.60;47.00
3504;DHT22;1766;53.490;10.174;2023-03-03T10:12:10;10.40;46.70
3504;DHT22;1766;53.490;10.174;2023-03-03T10:14:34;10.50;46.80
3504;DHT22;1766;53.490;10.174;2023-03-03T10:16:57;10.50;47.10
3504;DHT22;1766;53.490;10.174;2023-03-03T10:19:22;10.60;47.00
3504;DHT22;1766;53.490;10.174;2023-03-03T10:21:39;10.60;46.90
3504;DHT22;1766;53.490;10.174;2023-03-03T10:23:52;10.60;46.50
3504;DHT22;1766;53.490;10.174;2023-03-03T10:26:06;9.80;47.00
3504;DHT22;1766;53.490;10.174;2023-03-03T10:28:26;10.50;46.70
3504;DHT22;1766;53.490;10.174;2023-03-03T10:30:42;10.50;46.80
3504;DHT22;1766;53.490;10.174;2023-03-03T10:32:57;10.50;46.90
3504;DHT22;1766;53.490;10.174;2023-03-03T10:35:15;10.50;46.90
3504;DHT22;1766;53.490;10.174;2023-03-03T10:37:27;10.60;47.00
3504;DHT22;1766;53.490;10.174;2023-03-03T10:39:46;10.60;46.80
3504;DHT22;1766;53.490;10.174;2023-03-03T10:42:09;10.60;46.90
3504;DHT22;1766;53.490;10.174;2023-03-03T10:44:34;10.70;47.00
3504;DHT22;1766;53.490;10.174;2023-03-03T10:46:53;10.70;46.90
3504;DHT22;1766;53.490;10.174;2023-03-03T10:49:08;10.70;46.80
3504;DHT22;1766;53.490;10.174;2023-03-03T10:51:24;10.70;46.80
3504;DHT22;1766;53.490;10.174;2023-03-03T10:53:42;10.70;47.00
3504;DHT22;1766;53.490;10.174;2023-03-03T10:55:56;10.70;46.80
3504;DHT22;1766;53.490;10.174;2023-03-03T10:58:23;10.70;47.30
3504;DHT22;1766;53.490;10.174;2023-03-03T11:00:39;10.70;47.00
3504;DHT22;1766;53.490;10.174;2023-03-03T11:02:54;10.80;46.80
3504;DHT22;1766;53.490;10.174;2023-03-03T11:05:25;10.90;47.20
3504;DHT22;1766;53.490;10.174;2023-03-03T11:07:35;11.00;47.20
3504;DHT22;1766;53.490;10.174;2023-03-03T11:09:55;11.10;47.40
3504;DHT22;1766;53.490;10.174;2023-03-03T11:12:22;11.20;47.50
3504;DHT22;1766;53.490;10.174;2023-03-03T11:14:35;11.40;47.70
3504;DHT22;1766;53.490;10.174;2023-03-03T11:16:48;11.50;47.40
3504;DHT22;1766;53.490;10.174;2023-03-03T11:19:06;11.60;47.40
3504;DHT22;1766;53.490;10.174;2023-03-03T11:21:22;11.50;47.20
3504;DHT22;1766;53.490;10.174;2023-03-03T11:23:44;11.60;47.40
3504;DHT22;1766;53.490;10.174;2023-03-03T11:26:05;11.70;47.80
3504;DHT22;1766;53.490;10.174;2023-03-03T11:28:27;11.90;47.70
3504;DHT22;1766;53.490;10.174;2023-03-03T11:30:43;11.90;47.40
3504;DHT22;1766;53.490;10.174;2023-03-03T11:32:56;12.00;47.40
3504;DHT22;1766;53.490;10.174;2023-03-03T11:35:18;12.10;47.20
3504;DHT22;1766;53.490;10.174;2023-03-03T11:37:26;12.00;47.00
3504;DHT22;1766;53.490;10.174;2023-03-03T11:39:31;12.00;46.80
3504;DHT22;1766;53.490;10.174;2023-03-03T11:41:37;12.00;46.70
3504;DHT22;1766;53.490;10.174;2023-03-03T11:43:45;11.90;46.70
3504;DHT22;1766;53.490;10.174;2023-03-03T11:45:52;12.00;47.00
3504;DHT22;1766;53.490;10.174;2023-03-03T11:48:00;12.00;46.90
3504;DHT22;1766;53.490;10.174;2023-03-03T11:50:14;12.00;46.60
3504;DHT22;1766;53.490;10.174;2023-03-03T11:52:26;12.00;46.80
3504;DHT22;1766;53.490;10.174;2023-03-03T11:54:35;12.10;46.90
3504;DHT22;1766;53.490;10.174;2023-03-03T11:56:46;12.20;46.90
3504;DHT22;1766;53.490;10.174;2023-03-03T11:58:53;12.30;46.90
3504;DHT22;1766;53.490;10.174;2023-03-03T12:01:07;12.40;46.90
3504;DHT22;1766;53.490;10.174;2023-03-03T12:03:20;12.50;47.00
3504;DHT22;1766;53.490;10.174;2023-03-03T12:05:35;12.50;46.80
3504;DHT22;1766;53.490;10.174;2023-03-03T12:07:48;12.70;46.90
3504;DHT22;1766;53.490;10.174;2023-03-03T12:10:05;12.80;46.70
3504;DHT22;1766;53.490;10.174;2023-03-03T12:12:20;13.00;46.90
3504;DHT22;1766;53.490;10.174;2023-03-03T12:14:38;13.10;46.70
3504;DHT22;1766;53.490;10.174;2023-03-03T12:16:54;13.20;46.90
3504;DHT22;1766;53.490;10.174;2023-03-03T12:19:08;13.30;46.50
3504;DHT22;1766;53.490;10.174;2023-03-03T12:21:27;13.40;46.40
3504;DHT22;1766;53.490;10.174;2023-03-03T12:23:47;13.40;45.90
3504;DHT22;1766;53.490;10.174;2023-03-03T12:26:01;13.40;45.70
3504;DHT22;1766;53.490;10.174;2023-03-03T12:28:09;13.40;45.70
3504;DHT22;1766;53.490;10.174;2023-03-03T12:30:20;13.40;45.40
3504;DHT22;1766;53.490;10.174;2023-03-03T12:32:37;13.30;45.20
3504;DHT22;1766;53.490;10.174;2023-03-03T12:34:51;13.20;45.00
3504;DHT22;1766;53.490;10.174;2023-03-03T12:37:04;13.20;44.90
3504;DHT22;1766;53.490;10.174;2023-03-03T12:39:24;13.20;45.10
3504;DHT22;1766;53.490;10.174;2023-03-03T12:41:35;13.30;45.50
3504;DHT22;1766;53.490;10.174;2023-03-03T12:43:50;13.40;45.30
3504;DHT22;1766;53.490;10.174;2023-03-03T12:46:00;13.50;45.20
3504;DHT22;1766;53.490;10.174;2023-03-03T12:48:11;13.80;45.50
3504;DHT22;1766;53.490;10.174;2023-03-03T12:50:31;14.20;46.00
3504;DHT22;1766;53.490;10.174;2023-03-03T12:52:45;15.10;46.90
3504;DHT22;1766;53.490;10.174;2023-03-03T12:55:01;16.10;46.50
3504;DHT22;1766;53.490;10.174;2023-03-03T12:57:18;16.90;44.80
3504;DHT22;1766;53.490;10.174;2023-03-03T12:59:33;17.20;42.90
3504;DHT22;1766;53.490;10.174;2023-03-03T13:01:47;17.50;43.00
3504;DHT22;1766;53.490;10.174;2023-03-03T13:04:04;17.40;41.90
3504;DHT22;1766;53.490;10.174;2023-03-03T13:06:15;17.30;41.80
3504;DHT22;1766;53.490;10.174;2023-03-03T13:08:31;16.70;40.60
3504;DHT22;1766;53.490;10.174;2023-03-03T13:10:47;16.60;40.70
3504;DHT22;1766;53.490;10.174;2023-03-03T13:12:55;16.40;41.10
3504;DHT22;1766;53.490;10.174;2023-03-03T13:15:08;16.10;40.30
3504;DHT22;1766;53.490;10.174;2023-03-03T13:17:18;15.80;39.90
3504;DHT22;1766;53.490;10.174;2023-03-03T13:19:26;15.50;39.70
3504;DHT22;1766;53.490;10.174;2023-03-03T13:21:35;15.30;40.00
3504;DHT22;1766;53.490;10.174;2023-03-03T13:23:48;15.20;39.90
3504;DHT22;1766;53.490;10.174;2023-03-03T13:25:54;15.10;40.10
3504;DHT22;1766;53.490;10.174;2023-03-03T13:28:01;15.00;39.90
3504;DHT22;1766;53.490;10.174;2023-03-03T13:30:15;15.10;39.70
3504;DHT22;1766;53.490;10.174;2023-03-03T13:32:21;14.80;39.50
3504;DHT22;1766;53.490;10.174;2023-03-03T13:34:33;14.70;39.50
3504;DHT22;1766;53.490;10.174;2023-03-03T13:36:43;14.70;39.40
3504;DHT22;1766;53.490;10.174;2023-03-03T13:38:52;14.60;39.20
3504;DHT22;1766;53.490;10.174;2023-03-03T13:41:03;14.50;39.30
3504;DHT22;1766;53.490;10.174;2023-03-03T13:43:14;14.50;39.10
3504;DHT22;1766;53.490;10.174;2023-03-03T13:45:24;14.50;39.30
3504;DHT22;1766;53.490;10.174;2023-03-03T13:47:34;14.60;39.30
3504;DHT22;1766;53.490;10.174;2023-03-03T13:49:52;14.60;39.10